sensor_id;sensor_type;location;lat;lon;timestamp;P1;durP1;ratioP1;P2;durP2;ratioP2
4424;SDS011;2225;53.568;13.266;2022-11-20T00:01:23;4.23;;;3.00;;
4424;SDS011;2225;53.568;13.266;2022-11-20T00:03:52;5.20;;;2.93;;
4424;SDS011;2225;53.568;13.266;2022-11-20T00:06:21;7.30;;;3.40;;
4424;SDS011;2225;53.568;13.266;2022-11-20T00:08:49;5.80;;;3.10;;
4424;SDS011;2225;53.568;13.266;2022-11-20T00:11:17;4.73;;;2.93;;
4424;SDS011;2225;53.568;13.266;2022-11-20T00:13:47;4.00;;;3.10;;
4424;SDS011;2225;53.568;13.266;2022-11-20T00:16:17;4.40;;;2.80;;
4424;SDS011;2225;53.568;13.266;2022-11-20T00:18:48;5.50;;;3.40;;
4424;SDS011;2225;53.568;13.266;2022-11-20T00:21:16;4.87;;;3.13;;
4424;SDS011;2225;53.568;13.266;2022-11-20T00:23:47;4.97;;;3.43;;
4424;SDS011;2225;53.568;13.266;2022-11-20T00:26:17;6.30;;;3.37;;
4424;SDS011;2225;53.568;13.266;2022-11-20T00:28:56;5.70;;;3.23;;
4424;SDS011;2225;53.568;13.266;2022-11-20T00:31:25;5.80;;;3.47;;
4424;SDS011;2225;53.568;13.266;2022-11-20T00:33:53;4.60;;;2.97;;
4424;SDS011;2225;53.568;13.266;2022-11-20T00:36:21;5.03;;;3.57;;
4424;SDS011;2225;53.568;13.266;2022-11-20T00:38:51;9.13;;;3.30;;
4424;SDS011;2225;53.568;13.266;2022-11-20T00:41:22;4.87;;;3.47;;
4424;SDS011;2225;53.568;13.266;2022-11-20T00:43:51;6.10;;;3.67;;
4424;SDS011;2225;53.568;13.266;2022-11-20T00:46:20;7.07;;;3.87;;
4424;SDS011;2225;53.568;13.266;2022-11-20T00:48:50;5.50;;;4.00;;
4424;SDS011;2225;53.568;13.266;2022-11-20T00:51:18;7.50;;;4.27;;
4424;SDS011;2225;53.568;13.266;2022-11-20T00:53:48;7.27;;;4.40;;
4424;SDS011;2225;53.568;13.266;2022-11-20T00:56:16;6.60;;;3.73;;
4424;SDS011;2225;53.568;13.266;2022-11-20T00:58:46;4.93;;;3.57;;
4424;SDS011;2225;53.568;13.266;2022-11-20T01:01:15;7.20;;;4.10;;
4424;SDS011;2225;53.568;13.266;2022-11-20T01:03:45;5.83;;;4.03;;
4424;SDS011;2225;53.568;13.266;2022-11-20T01:08:50;6.33;;;4.20;;
4424;SDS011;2225;53.568;13.266;2022-11-20T01:11:21;6.77;;;4.17;;
4424;SDS011;2225;53.568;13.266;2022-11-20T01:13:51;5.40;;;3.60;;
4424;SDS011;2225;53.568;13.266;2022-11-20T01:16:20;7.90;;;4.17;;
4424;SDS011;2225;53.568;13.266;2022-11-20T01:18:57;7.60;;;4.70;;
4424;SDS011;2225;53.568;13.266;2022-11-20T01:21:27;5.67;;;4.20;;
4424;SDS011;2225;53.568;13.266;2022-11-20T01:23:56;6.33;;;4.00;;
4424;SDS011;2225;53.568;13.266;2022-11-20T01:26:26;7.40;;;4.37;;
4424;SDS011;2225;53.568;13.266;2022-11-20T01:28:56;7.33;;;4.40;;
4424;SDS011;2225;53.568;13.266;2022-11-20T01:31:25;6.23;;;4.77;;
4424;SDS011;2225;53.568;13.266;2022-11-20T01:33:56;6.40;;;4.40;;
4424;SDS011;2225;53.568;13.266;2022-11-20T01:36:26;6.00;;;4.20;;
4424;SDS011;2225;53.568;13.266;2022-11-20T01:38:57;6.70;;;4.50;;
4424;SDS011;2225;53.568;13.266;2022-11-20T01:41:27;6.30;;;4.40;;
4424;SDS011;2225;53.568;13.266;2022-11-20T01:44:17;6.77;;;4.67;;
4424;SDS011;2225;53.568;13.266;2022-11-20T01:49:48;5.77;;;3.70;;
4424;SDS011;2225;53.568;13.266;2022-11-20T01:52:30;9.10;;;4.20;;
4424;SDS011;2225;53.568;13.266;2022-11-20T01:55:15;6.37;;;4.30;;
4424;SDS011;2225;53.568;13.266;2022-11-20T01:57:47;6.03;;;4.17;;
4424;SDS011;2225;53.568;13.266;2022-11-20T02:00:16;7.07;;;4.63;;
4424;SDS011;2225;53.568;13.266;2022-11-20T02:02:46;5.03;;;3.70;;
4424;SDS011;2225;53.568;13.266;2022-11-20T02:08:08;5.83;;;4.60;;
4424;SDS011;2225;53.568;13.266;2022-11-20T02:10:35;6.77;;;4.60;;
4424;SDS011;2225;53.568;13.266;2022-11-20T02:13:02;6.00;;;4.00;;
4424;SDS011;2225;53.568;13.266;2022-11-20T02:15:47;10.37;;;4.57;;
4424;SDS011;2225;53.568;13.266;2022-11-20T02:18:16;5.90;;;4.43;;
4424;SDS011;2225;53.568;13.266;2022-11-20T02:20:47;5.70;;;3.80;;
4424;SDS011;2225;53.568;13.266;2022-11-20T02:23:22;5.77;;;4.20;;
4424;SDS011;2225;53.568;13.266;2022-11-20T02:26:08;8.43;;;4.90;;
4424;SDS011;2225;53.568;13.266;2022-11-20T02:28:39;5.03;;;4.17;;
4424;SDS011;2225;53.568;13.266;2022-11-20T02:31:06;5.10;;;3.60;;
4424;SDS011;2225;53.568;13.266;2022-11-20T02:33:34;5.37;;;3.87;;
4424;SDS011;2225;53.568;13.266;2022-11-20T02:36:00;5.20;;;3.83;;
4424;SDS011;2225;53.568;13.266;2022-11-20T02:38:27;5.83;;;4.00;;
4424;SDS011;2225;53.568;13.266;2022-11-20T02:40:54;6.97;;;4.50;;
4424;SDS011;2225;53.568;13.266;2022-11-20T02:43:22;4.53;;;3.57;;
4424;SDS011;2225;53.568;13.266;2022-11-20T02:45:49;5.83;;;3.87;;
4424;SDS011;2225;53.568;13.266;2022-11-20T02:48:16;9.03;;;4.10;;
4424;SDS011;2225;53.568;13.266;2022-11-20T02:50:43;4.23;;;3.40;;
4424;SDS011;2225;53.568;13.266;2022-11-20T02:53:10;5.40;;;3.93;;
4424;SDS011;2225;53.568;13.266;2022-11-20T02:55:37;7.60;;;4.70;;
4424;SDS011;2225;53.568;13.266;2022-11-20T02:58:04;5.10;;;3.97;;
4424;SDS011;2225;53.568;13.266;2022-11-20T03:00:31;5.97;;;3.90;;
4424;SDS011;2225;53.568;13.266;2022-11-20T03:02:58;6.57;;;4.07;;
4424;SDS011;2225;53.568;13.266;2022-11-20T03:05:25;5.80;;;4.43;;
4424;SDS011;2225;53.568;13.266;2022-11-20T03:07:52;4.90;;;4.07;;
4424;SDS011;2225;53.568;13.266;2022-11-20T03:10:18;13.13;;;4.23;;
4424;SDS011;2225;53.568;13.266;2022-11-20T03:12:45;4.97;;;3.87;;
4424;SDS011;2225;53.568;13.266;2022-11-20T03:15:12;5.93;;;4.10;;
4424;SDS011;2225;53.568;13.266;2022-11-20T03:17:39;6.10;;;4.00;;
4424;SDS011;2225;53.568;13.266;2022-11-20T03:20:06;4.73;;;3.60;;
4424;SDS011;2225;53.568;13.266;2022-11-20T03:22:35;6.63;;;4.50;;
4424;SDS011;2225;53.568;13.266;2022-11-20T03:25:02;5.20;;;4.13;;
4424;SDS011;2225;53.568;13.266;2022-11-20T03:27:31;4.70;;;3.70;;
4424;SDS011;2225;53.568;13.266;2022-11-20T03:30:00;4.70;;;3.27;;
4424;SDS011;2225;53.568;13.266;2022-11-20T03:32:27;5.00;;;3.60;;
4424;SDS011;2225;53.568;13.266;2022-11-20T03:34:54;6.07;;;4.17;;
4424;SDS011;2225;53.568;13.266;2022-11-20T03:37:21;6.40;;;4.00;;
4424;SDS011;2225;53.568;13.266;2022-11-20T03:39:48;6.17;;;4.43;;
4424;SDS011;2225;53.568;13.266;2022-11-20T03:42:15;6.23;;;4.50;;
4424;SDS011;2225;53.568;13.266;2022-11-20T03:45:01;7.80;;;4.87;;
4424;SDS011;2225;53.568;13.266;2022-11-20T03:47:27;5.33;;;3.90;;
4424;SDS011;2225;53.568;13.266;2022-11-20T03:49:54;5.27;;;3.67;;
4424;SDS011;2225;53.568;13.266;2022-11-20T03:52:21;6.30;;;4.40;;
4424;SDS011;2225;53.568;13.266;2022-11-20T03:54:48;6.20;;;4.27;;
4424;SDS011;2225;53.568;13.266;2022-11-20T03:57:15;7.00;;;4.60;;
4424;SDS011;2225;53.568;13.266;2022-11-20T03:59:42;4.90;;;4.00;;
4424;SDS011;2225;53.568;13.266;2022-11-20T04:02:09;5.70;;;4.50;;
4424;SDS011;2225;53.568;13.266;2022-11-20T04:04:36;6.23;;;4.33;;
4424;SDS011;2225;53.568;13.266;2022-11-20T04:07:02;6.83;;;4.33;;
4424;SDS011;2225;53.568;13.266;2022-11-20T04:09:29;7.70;;;4.50;;
4424;SDS011;2225;53.568;13.266;2022-11-20T04:11:56;6.37;;;4.13;;
4424;SDS011;2225;53.568;13.266;2022-11-20T04:14:23;6.90;;;4.83;;
4424;SDS011;2225;53.568;13.266;2022-11-20T04:16:50;4.80;;;4.00;;
4424;SDS011;2225;53.568;13.266;2022-11-20T04:19:17;5.40;;;3.93;;
4424;SDS011;2225;53.568;13.266;2022-11-20T04:21:45;5.40;;;3.80;;
4424;SDS011;2225;53.568;13.266;2022-11-20T04:24:12;7.00;;;4.60;;
4424;SDS011;2225;53.568;13.266;2022-11-20T04:26:39;6.50;;;5.00;;
4424;SDS011;2225;53.568;13.266;2022-11-20T04:29:06;5.60;;;4.20;;
4424;SDS011;2225;53.568;13.266;2022-11-20T04:31:36;9.63;;;4.20;;
4424;SDS011;2225;53.568;13.266;2022-11-20T04:34:04;6.50;;;4.53;;
4424;SDS011;2225;53.568;13.266;2022-11-20T04:36:33;5.53;;;3.70;;
4424;SDS011;2225;53.568;13.266;2022-11-20T04:39:02;4.93;;;3.60;;
4424;SDS011;2225;53.568;13.266;2022-11-20T04:41:35;6.17;;;4.07;;
4424;SDS011;2225;53.568;13.266;2022-11-20T04:44:03;5.30;;;3.90;;
4424;SDS011;2225;53.568;13.266;2022-11-20T04:46:33;4.90;;;3.40;;
4424;SDS011;2225;53.568;13.266;2022-11-20T04:49:05;5.57;;;3.53;;
4424;SDS011;2225;53.568;13.266;2022-11-20T04:51:33;3.93;;;2.90;;
4424;SDS011;2225;53.568;13.266;2022-11-20T04:54:00;4.20;;;2.90;;
4424;SDS011;2225;53.568;13.266;2022-11-20T04:56:28;4.53;;;3.43;;
4424;SDS011;2225;53.568;13.266;2022-11-20T04:58:54;5.00;;;3.40;;
4424;SDS011;2225;53.568;13.266;2022-11-20T05:01:23;5.30;;;3.60;;
4424;SDS011;2225;53.568;13.266;2022-11-20T05:03:51;3.83;;;2.80;;
4424;SDS011;2225;53.568;13.266;2022-11-20T05:06:19;4.60;;;3.43;;
4424;SDS011;2225;53.568;13.266;2022-11-20T05:08:47;4.00;;;3.00;;
4424;SDS011;2225;53.568;13.266;2022-11-20T05:11:16;3.90;;;2.90;;
4424;SDS011;2225;53.568;13.266;2022-11-20T05:13:45;5.03;;;3.40;;
4424;SDS011;2225;53.568;13.266;2022-11-20T05:16:17;3.63;;;2.63;;
4424;SDS011;2225;53.568;13.266;2022-11-20T05:18:50;4.70;;;2.70;;
4424;SDS011;2225;53.568;13.266;2022-11-20T05:21:18;3.90;;;2.87;;
4424;SDS011;2225;53.568;13.266;2022-11-20T05:23:45;3.67;;;2.63;;
4424;SDS011;2225;53.568;13.266;2022-11-20T05:26:20;4.80;;;3.43;;
4424;SDS011;2225;53.568;13.266;2022-11-20T05:28:48;5.17;;;3.37;;
4424;SDS011;2225;53.568;13.266;2022-11-20T05:31:20;5.37;;;3.60;;
4424;SDS011;2225;53.568;13.266;2022-11-20T05:33:53;5.10;;;3.70;;
4424;SDS011;2225;53.568;13.266;2022-11-20T05:36:22;4.23;;;3.37;;
4424;SDS011;2225;53.568;13.266;2022-11-20T05:38:50;5.00;;;3.20;;
4424;SDS011;2225;53.568;13.266;2022-11-20T05:41:21;4.33;;;3.13;;
4424;SDS011;2225;53.568;13.266;2022-11-20T05:43:49;5.07;;;3.60;;
4424;SDS011;2225;53.568;13.266;2022-11-20T05:46:18;5.90;;;3.40;;
4424;SDS011;2225;53.568;13.266;2022-11-20T05:48:53;5.53;;;3.70;;
4424;SDS011;2225;53.568;13.266;2022-11-20T05:51:20;6.90;;;4.30;;
4424;SDS011;2225;53.568;13.266;2022-11-20T05:53:49;6.00;;;4.50;;
4424;SDS011;2225;53.568;13.266;2022-11-20T05:56:17;6.57;;;4.50;;
4424;SDS011;2225;53.568;13.266;2022-11-20T05:58:46;5.73;;;3.93;;
4424;SDS011;2225;53.568;13.266;2022-11-20T06:01:16;6.53;;;4.50;;
4424;SDS011;2225;53.568;13.266;2022-11-20T06:03:49;6.00;;;4.50;;
4424;SDS011;2225;53.568;13.266;2022-11-20T06:06:18;7.10;;;4.70;;
4424;SDS011;2225;53.568;13.266;2022-11-20T06:08:45;8.87;;;6.17;;
4424;SDS011;2225;53.568;13.266;2022-11-20T06:11:13;6.80;;;5.27;;
4424;SDS011;2225;53.568;13.266;2022-11-20T06:13:41;8.47;;;6.37;;
4424;SDS011;2225;53.568;13.266;2022-11-20T06:16:09;7.77;;;6.07;;
4424;SDS011;2225;53.568;13.266;2022-11-20T06:18:37;8.33;;;6.10;;
4424;SDS011;2225;53.568;13.266;2022-11-20T06:21:05;9.27;;;6.10;;
4424;SDS011;2225;53.568;13.266;2022-11-20T06:23:38;8.53;;;6.43;;
4424;SDS011;2225;53.568;13.266;2022-11-20T06:26:10;7.80;;;6.17;;
4424;SDS011;2225;53.568;13.266;2022-11-20T06:28:40;9.10;;;6.90;;
4424;SDS011;2225;53.568;13.266;2022-11-20T06:31:07;7.33;;;5.77;;
4424;SDS011;2225;53.568;13.266;2022-11-20T06:33:38;9.57;;;6.40;;
4424;SDS011;2225;53.568;13.266;2022-11-20T06:36:05;9.60;;;6.80;;
4424;SDS011;2225;53.568;13.266;2022-11-20T06:38:36;9.90;;;7.10;;
4424;SDS011;2225;53.568;13.266;2022-11-20T06:41:10;8.87;;;6.87;;
4424;SDS011;2225;53.568;13.266;2022-11-20T06:43:42;8.60;;;6.20;;
4424;SDS011;2225;53.568;13.266;2022-11-20T06:46:09;8.10;;;5.83;;
4424;SDS011;2225;53.568;13.266;2022-11-20T06:48:39;9.50;;;6.50;;
4424;SDS011;2225;53.568;13.266;2022-11-20T06:51:06;8.20;;;5.67;;
4424;SDS011;2225;53.568;13.266;2022-11-20T06:53:34;10.70;;;7.03;;
4424;SDS011;2225;53.568;13.266;2022-11-20T06:56:02;22.63;;;7.03;;
4424;SDS011;2225;53.568;13.266;2022-11-20T06:58:30;8.90;;;6.57;;
4424;SDS011;2225;53.568;13.266;2022-11-20T07:00:59;10.10;;;6.77;;
4424;SDS011;2225;53.568;13.266;2022-11-20T07:03:28;9.00;;;6.60;;
4424;SDS011;2225;53.568;13.266;2022-11-20T07:05:56;9.77;;;6.90;;
4424;SDS011;2225;53.568;13.266;2022-11-20T07:08:24;10.73;;;7.10;;
4424;SDS011;2225;53.568;13.266;2022-11-20T07:10:51;9.90;;;6.50;;
4424;SDS011;2225;53.568;13.266;2022-11-20T07:13:18;8.53;;;6.37;;
4424;SDS011;2225;53.568;13.266;2022-11-20T07:15:45;9.60;;;6.70;;
4424;SDS011;2225;53.568;13.266;2022-11-20T07:18:12;10.00;;;6.67;;
4424;SDS011;2225;53.568;13.266;2022-11-20T07:20:39;11.37;;;7.93;;
4424;SDS011;2225;53.568;13.266;2022-11-20T07:23:06;10.87;;;7.20;;
4424;SDS011;2225;53.568;13.266;2022-11-20T07:25:33;10.33;;;6.77;;
4424;SDS011;2225;53.568;13.266;2022-11-20T07:28:00;11.20;;;7.70;;
4424;SDS011;2225;53.568;13.266;2022-11-20T07:30:27;10.67;;;7.80;;
4424;SDS011;2225;53.568;13.266;2022-11-20T07:32:55;9.50;;;6.97;;
4424;SDS011;2225;53.568;13.266;2022-11-20T07:35:23;10.00;;;7.30;;
4424;SDS011;2225;53.568;13.266;2022-11-20T07:37:51;9.80;;;7.27;;
4424;SDS011;2225;53.568;13.266;2022-11-20T07:40:18;9.60;;;7.27;;
4424;SDS011;2225;53.568;13.266;2022-11-20T07:42:52;10.00;;;6.47;;
4424;SDS011;2225;53.568;13.266;2022-11-20T07:45:21;12.47;;;7.50;;
4424;SDS011;2225;53.568;13.266;2022-11-20T07:47:49;8.23;;;6.07;;
4424;SDS011;2225;53.568;13.266;2022-11-20T07:50:17;9.73;;;7.07;;
4424;SDS011;2225;53.568;13.266;2022-11-20T07:52:45;9.00;;;6.50;;
4424;SDS011;2225;53.568;13.266;2022-11-20T07:55:12;9.87;;;6.80;;
4424;SDS011;2225;53.568;13.266;2022-11-20T07:57:39;10.23;;;7.10;;
4424;SDS011;2225;53.568;13.266;2022-11-20T08:00:07;8.80;;;6.63;;
4424;SDS011;2225;53.568;13.266;2022-11-20T08:02:40;10.00;;;6.83;;
4424;SDS011;2225;53.568;13.266;2022-11-20T08:05:10;10.03;;;6.70;;
4424;SDS011;2225;53.568;13.266;2022-11-20T08:07:37;11.67;;;7.50;;
4424;SDS011;2225;53.568;13.266;2022-11-20T08:10:06;9.00;;;5.97;;
4424;SDS011;2225;53.568;13.266;2022-11-20T08:12:35;8.93;;;6.17;;
4424;SDS011;2225;53.568;13.266;2022-11-20T08:15:20;11.20;;;6.93;;
4424;SDS011;2225;53.568;13.266;2022-11-20T08:17:47;12.13;;;6.63;;
4424;SDS011;2225;53.568;13.266;2022-11-20T08:20:34;9.10;;;6.20;;
4424;SDS011;2225;53.568;13.266;2022-11-20T08:23:02;9.90;;;7.30;;
4424;SDS011;2225;53.568;13.266;2022-11-20T08:25:34;9.53;;;7.03;;
4424;SDS011;2225;53.568;13.266;2022-11-20T08:28:03;10.53;;;7.33;;
4424;SDS011;2225;53.568;13.266;2022-11-20T08:30:45;11.10;;;7.70;;
4424;SDS011;2225;53.568;13.266;2022-11-20T08:33:12;8.83;;;5.73;;
4424;SDS011;2225;53.568;13.266;2022-11-20T08:35:39;10.90;;;7.43;;
4424;SDS011;2225;53.568;13.266;2022-11-20T08:38:08;10.30;;;7.57;;
4424;SDS011;2225;53.568;13.266;2022-11-20T08:40:35;9.23;;;7.20;;
4424;SDS011;2225;53.568;13.266;2022-11-20T08:43:02;10.80;;;7.83;;
4424;SDS011;2225;53.568;13.266;2022-11-20T08:45:29;11.43;;;7.87;;
4424;SDS011;2225;53.568;13.266;2022-11-20T08:48:00;11.97;;;8.43;;
4424;SDS011;2225;53.568;13.266;2022-11-20T08:50:29;14.50;;;9.10;;
4424;SDS011;2225;53.568;13.266;2022-11-20T08:53:04;12.10;;;8.10;;
4424;SDS011;2225;53.568;13.266;2022-11-20T08:55:32;12.43;;;8.90;;
4424;SDS011;2225;53.568;13.266;2022-11-20T08:58:04;12.53;;;8.30;;
4424;SDS011;2225;53.568;13.266;2022-11-20T09:00:33;10.67;;;7.53;;
4424;SDS011;2225;53.568;13.266;2022-11-20T09:03:00;15.47;;;9.13;;
4424;SDS011;2225;53.568;13.266;2022-11-20T09:05:28;10.50;;;7.20;;
4424;SDS011;2225;53.568;13.266;2022-11-20T09:07:55;11.17;;;7.93;;
4424;SDS011;2225;53.568;13.266;2022-11-20T09:10:23;12.17;;;8.77;;
4424;SDS011;2225;53.568;13.266;2022-11-20T09:12:51;11.43;;;8.23;;
4424;SDS011;2225;53.568;13.266;2022-11-20T09:15:19;12.00;;;8.10;;
4424;SDS011;2225;53.568;13.266;2022-11-20T09:17:56;13.30;;;8.83;;
4424;SDS011;2225;53.568;13.266;2022-11-20T09:20:25;14.97;;;8.10;;
4424;SDS011;2225;53.568;13.266;2022-11-20T09:22:55;12.77;;;8.10;;
4424;SDS011;2225;53.568;13.266;2022-11-20T09:25:22;11.43;;;8.07;;
4424;SDS011;2225;53.568;13.266;2022-11-20T09:27:56;11.73;;;8.03;;
4424;SDS011;2225;53.568;13.266;2022-11-20T09:30:25;11.30;;;8.20;;
4424;SDS011;2225;53.568;13.266;2022-11-20T09:32:52;13.43;;;9.30;;
4424;SDS011;2225;53.568;13.266;2022-11-20T09:35:19;12.23;;;7.90;;
4424;SDS011;2225;53.568;13.266;2022-11-20T09:37:46;9.00;;;6.83;;
4424;SDS011;2225;53.568;13.266;2022-11-20T09:40:20;9.50;;;6.73;;
4424;SDS011;2225;53.568;13.266;2022-11-20T09:54:26;12.87;;;7.00;;
4424;SDS011;2225;53.568;13.266;2022-11-20T09:57:32;10.80;;;7.30;;
4424;SDS011;2225;53.568;13.266;2022-11-20T10:00:06;10.43;;;7.07;;
4424;SDS011;2225;53.568;13.266;2022-11-20T10:05:11;10.83;;;7.27;;
4424;SDS011;2225;53.568;13.266;2022-11-20T10:07:53;9.77;;;6.43;;
4424;SDS011;2225;53.568;13.266;2022-11-20T10:11:00;12.00;;;6.43;;
4424;SDS011;2225;53.568;13.266;2022-11-20T10:17:02;8.97;;;6.17;;
4424;SDS011;2225;53.568;13.266;2022-11-20T10:22:44;10.97;;;6.77;;
4424;SDS011;2225;53.568;13.266;2022-11-20T10:26:04;9.63;;;6.73;;
4424;SDS011;2225;53.568;13.266;2022-11-20T10:28:58;10.53;;;7.23;;
4424;SDS011;2225;53.568;13.266;2022-11-20T10:31:43;7.60;;;6.00;;
4424;SDS011;2225;53.568;13.266;2022-11-20T10:34:21;9.23;;;6.50;;
4424;SDS011;2225;53.568;13.266;2022-11-20T10:37:27;10.10;;;6.00;;
4424;SDS011;2225;53.568;13.266;2022-11-20T10:42:45;9.27;;;6.23;;
4424;SDS011;2225;53.568;13.266;2022-11-20T10:47:54;8.50;;;5.60;;
4424;SDS011;2225;53.568;13.266;2022-11-20T10:50:35;11.07;;;6.90;;
4424;SDS011;2225;53.568;13.266;2022-11-20T10:55:47;9.47;;;6.40;;
4424;SDS011;2225;53.568;13.266;2022-11-20T10:58:28;7.40;;;4.80;;
4424;SDS011;2225;53.568;13.266;2022-11-20T11:01:19;7.83;;;5.37;;
4424;SDS011;2225;53.568;13.266;2022-11-20T11:03:53;9.53;;;6.00;;
4424;SDS011;2225;53.568;13.266;2022-11-20T11:06:24;15.00;;;6.23;;
4424;SDS011;2225;53.568;13.266;2022-11-20T11:09:11;10.87;;;6.77;;
4424;SDS011;2225;53.568;13.266;2022-11-20T11:11:58;12.47;;;7.30;;
4424;SDS011;2225;53.568;13.266;2022-11-20T11:14:32;14.33;;;8.70;;
4424;SDS011;2225;53.568;13.266;2022-11-20T11:17:32;12.63;;;7.27;;
4424;SDS011;2225;53.568;13.266;2022-11-20T11:20:01;12.17;;;6.57;;
4424;SDS011;2225;53.568;13.266;2022-11-20T11:22:53;18.20;;;7.93;;
4424;SDS011;2225;53.568;13.266;2022-11-20T11:28:01;13.67;;;7.17;;
4424;SDS011;2225;53.568;13.266;2022-11-20T11:30:40;11.90;;;6.23;;
4424;SDS011;2225;53.568;13.266;2022-11-20T11:33:10;11.23;;;6.37;;
4424;SDS011;2225;53.568;13.266;2022-11-20T11:36:00;8.40;;;5.80;;
4424;SDS011;2225;53.568;13.266;2022-11-20T11:38:37;12.33;;;5.43;;
4424;SDS011;2225;53.568;13.266;2022-11-20T11:41:07;7.00;;;4.73;;
4424;SDS011;2225;53.568;13.266;2022-11-20T11:43:48;7.17;;;5.03;;
4424;SDS011;2225;53.568;13.266;2022-11-20T11:46:41;10.10;;;5.47;;
4424;SDS011;2225;53.568;13.266;2022-11-20T11:49:19;7.80;;;5.00;;
4424;SDS011;2225;53.568;13.266;2022-11-20T11:51:58;6.17;;;4.50;;
4424;SDS011;2225;53.568;13.266;2022-11-20T11:54:36;7.30;;;4.27;;
4424;SDS011;2225;53.568;13.266;2022-11-20T12:05:22;7.57;;;4.50;;
4424;SDS011;2225;53.568;13.266;2022-11-20T12:07:59;12.50;;;6.50;;
4424;SDS011;2225;53.568;13.266;2022-11-20T12:10:52;7.47;;;5.00;;
4424;SDS011;2225;53.568;13.266;2022-11-20T12:13:39;7.20;;;5.00;;
4424;SDS011;2225;53.568;13.266;2022-11-20T12:16:14;6.50;;;4.30;;
4424;SDS011;2225;53.568;13.266;2022-11-20T12:18:46;5.97;;;4.53;;
4424;SDS011;2225;53.568;13.266;2022-11-20T12:21:18;7.57;;;4.90;;
4424;SDS011;2225;53.568;13.266;2022-11-20T12:26:43;6.77;;;4.77;;
4424;SDS011;2225;53.568;13.266;2022-11-20T12:29:38;6.70;;;4.37;;
4424;SDS011;2225;53.568;13.266;2022-11-20T12:35:42;6.07;;;3.83;;
4424;SDS011;2225;53.568;13.266;2022-11-20T12:44:52;6.50;;;4.10;;
4424;SDS011;2225;53.568;13.266;2022-11-20T12:47:45;7.03;;;4.83;;
4424;SDS011;2225;53.568;13.266;2022-11-20T12:56:44;5.40;;;3.80;;
4424;SDS011;2225;53.568;13.266;2022-11-20T12:59:33;6.63;;;4.23;;
4424;SDS011;2225;53.568;13.266;2022-11-20T13:02:35;6.57;;;4.10;;
4424;SDS011;2225;53.568;13.266;2022-11-20T13:05:36;6.80;;;4.30;;
4424;SDS011;2225;53.568;13.266;2022-11-20T13:08:20;4.67;;;3.23;;
4424;SDS011;2225;53.568;13.266;2022-11-20T13:11:03;5.53;;;3.73;;
4424;SDS011;2225;53.568;13.266;2022-11-20T13:19:42;4.13;;;3.03;;
4424;SDS011;2225;53.568;13.266;2022-11-20T13:22:25;4.77;;;3.57;;
4424;SDS011;2225;53.568;13.266;2022-11-20T13:24:53;5.03;;;3.40;;
4424;SDS011;2225;53.568;13.266;2022-11-20T13:27:21;4.90;;;3.40;;
4424;SDS011;2225;53.568;13.266;2022-11-20T13:29:59;5.50;;;3.97;;
4424;SDS011;2225;53.568;13.266;2022-11-20T13:32:47;5.97;;;3.80;;
4424;SDS011;2225;53.568;13.266;2022-11-20T13:35:27;7.87;;;5.33;;
4424;SDS011;2225;53.568;13.266;2022-11-20T13:38:08;9.13;;;5.43;;
4424;SDS011;2225;53.568;13.266;2022-11-20T13:40:50;7.90;;;5.90;;
4424;SDS011;2225;53.568;13.266;2022-11-20T13:43:46;32.37;;;15.00;;
4424;SDS011;2225;53.568;13.266;2022-11-20T13:46:14;34.43;;;17.30;;
4424;SDS011;2225;53.568;13.266;2022-11-20T13:48:43;22.00;;;13.53;;
4424;SDS011;2225;53.568;13.266;2022-11-20T13:51:31;15.10;;;8.87;;
4424;SDS011;2225;53.568;13.266;2022-11-20T13:57:35;8.83;;;5.33;;
4424;SDS011;2225;53.568;13.266;2022-11-20T14:00:50;6.70;;;4.90;;
4424;SDS011;2225;53.568;13.266;2022-11-20T14:03:24;6.50;;;4.90;;
4424;SDS011;2225;53.568;13.266;2022-11-20T14:08:58;6.33;;;4.10;;
4424;SDS011;2225;53.568;13.266;2022-11-20T14:11:26;5.93;;;4.17;;
4424;SDS011;2225;53.568;13.266;2022-11-20T14:16:30;6.10;;;4.20;;
4424;SDS011;2225;53.568;13.266;2022-11-20T14:19:17;5.60;;;4.27;;
4424;SDS011;2225;53.568;13.266;2022-11-20T14:21:48;5.27;;;3.77;;
4424;SDS011;2225;53.568;13.266;2022-11-20T14:24:43;5.70;;;3.67;;
4424;SDS011;2225;53.568;13.266;2022-11-20T14:27:12;6.57;;;4.40;;
4424;SDS011;2225;53.568;13.266;2022-11-20T14:29:49;4.93;;;3.50;;
4424;SDS011;2225;53.568;13.266;2022-11-20T14:32:17;4.53;;;3.20;;
4424;SDS011;2225;53.568;13.266;2022-11-20T14:34:47;6.00;;;4.10;;
4424;SDS011;2225;53.568;13.266;2022-11-20T14:37:20;6.70;;;3.50;;
4424;SDS011;2225;53.568;13.266;2022-11-20T14:39:51;5.70;;;3.93;;
4424;SDS011;2225;53.568;13.266;2022-11-20T14:42:22;5.10;;;3.87;;
4424;SDS011;2225;53.568;13.266;2022-11-20T14:44:52;7.30;;;4.20;;
4424;SDS011;2225;53.568;13.266;2022-11-20T14:47:26;6.97;;;3.87;;
4424;SDS011;2225;53.568;13.266;2022-11-20T14:49:56;8.80;;;6.17;;
4424;SDS011;2225;53.568;13.266;2022-11-20T14:52:25;7.87;;;5.40;;
4424;SDS011;2225;53.568;13.266;2022-11-20T14:54:56;11.57;;;7.60;;
4424;SDS011;2225;53.568;13.266;2022-11-20T14:57:28;13.77;;;9.20;;
4424;SDS011;2225;53.568;13.266;2022-11-20T15:00:07;13.13;;;8.63;;
4424;SDS011;2225;53.568;13.266;2022-11-20T15:02:48;8.37;;;5.67;;
4424;SDS011;2225;53.568;13.266;2022-11-20T15:05:17;6.73;;;4.53;;
4424;SDS011;2225;53.568;13.266;2022-11-20T15:07:49;6.10;;;4.43;;
4424;SDS011;2225;53.568;13.266;2022-11-20T15:10:30;7.70;;;5.10;;
4424;SDS011;2225;53.568;13.266;2022-11-20T15:13:01;5.77;;;4.80;;
4424;SDS011;2225;53.568;13.266;2022-11-20T15:18:39;9.53;;;6.03;;
4424;SDS011;2225;53.568;13.266;2022-11-20T15:21:11;8.80;;;5.37;;
4424;SDS011;2225;53.568;13.266;2022-11-20T15:23:41;17.70;;;7.10;;
4424;SDS011;2225;53.568;13.266;2022-11-20T15:26:09;9.07;;;5.93;;
4424;SDS011;2225;53.568;13.266;2022-11-20T15:28:45;8.00;;;5.13;;
4424;SDS011;2225;53.568;13.266;2022-11-20T15:31:17;10.50;;;5.00;;
4424;SDS011;2225;53.568;13.266;2022-11-20T15:33:47;7.10;;;5.13;;
4424;SDS011;2225;53.568;13.266;2022-11-20T15:36:14;6.80;;;4.90;;
4424;SDS011;2225;53.568;13.266;2022-11-20T15:38:41;8.57;;;6.10;;
4424;SDS011;2225;53.568;13.266;2022-11-20T15:41:08;7.37;;;4.60;;
4424;SDS011;2225;53.568;13.266;2022-11-20T15:43:36;7.77;;;4.83;;
4424;SDS011;2225;53.568;13.266;2022-11-20T15:46:05;8.03;;;4.80;;
4424;SDS011;2225;53.568;13.266;2022-11-20T15:48:36;6.07;;;4.20;;
4424;SDS011;2225;53.568;13.266;2022-11-20T15:54:16;5.73;;;4.50;;
4424;SDS011;2225;53.568;13.266;2022-11-20T15:56:48;8.30;;;5.23;;
4424;SDS011;2225;53.568;13.266;2022-11-20T15:59:18;6.30;;;4.23;;
4424;SDS011;2225;53.568;13.266;2022-11-20T16:01:45;5.90;;;4.13;;
4424;SDS011;2225;53.568;13.266;2022-11-20T16:04:13;8.53;;;5.67;;
4424;SDS011;2225;53.568;13.266;2022-11-20T16:06:42;7.87;;;4.87;;
4424;SDS011;2225;53.568;13.266;2022-11-20T16:09:09;7.70;;;4.30;;
4424;SDS011;2225;53.568;13.266;2022-11-20T16:11:36;6.60;;;5.10;;
4424;SDS011;2225;53.568;13.266;2022-11-20T16:14:04;7.17;;;5.43;;
4424;SDS011;2225;53.568;13.266;2022-11-20T16:16:50;7.50;;;5.40;;
4424;SDS011;2225;53.568;13.266;2022-11-20T16:19:17;7.80;;;5.47;;
4424;SDS011;2225;53.568;13.266;2022-11-20T16:21:44;6.77;;;5.17;;
4424;SDS011;2225;53.568;13.266;2022-11-20T16:24:12;7.50;;;5.17;;
4424;SDS011;2225;53.568;13.266;2022-11-20T16:26:40;6.43;;;4.60;;
4424;SDS011;2225;53.568;13.266;2022-11-20T16:29:07;6.00;;;4.20;;
4424;SDS011;2225;53.568;13.266;2022-11-20T16:31:36;5.70;;;4.47;;
4424;SDS011;2225;53.568;13.266;2022-11-20T16:34:04;6.40;;;4.40;;
4424;SDS011;2225;53.568;13.266;2022-11-20T16:36:40;8.03;;;5.90;;
4424;SDS011;2225;53.568;13.266;2022-11-20T16:39:09;6.73;;;4.80;;
4424;SDS011;2225;53.568;13.266;2022-11-20T16:41:37;7.27;;;5.10;;
4424;SDS011;2225;53.568;13.266;2022-11-20T16:44:08;7.90;;;4.40;;
4424;SDS011;2225;53.568;13.266;2022-11-20T16:46:36;10.17;;;5.80;;
4424;SDS011;2225;53.568;13.266;2022-11-20T16:49:04;8.70;;;6.13;;
4424;SDS011;2225;53.568;13.266;2022-11-20T16:51:35;11.10;;;6.70;;
4424;SDS011;2225;53.568;13.266;2022-11-20T16:54:05;10.17;;;6.30;;
4424;SDS011;2225;53.568;13.266;2022-11-20T16:56:33;8.20;;;5.90;;